Time;durP1;ratioP1;P1;durP2;ratioP2;P2;SDS_P1;SDS_P2;PMS_P1;PMS_P2;Temp;Humidity;BMP_temperature;BMP_pressure;BME280_temperature;BME280_humidity;BME280_pressure;Samples;Min_cycle;Max_cycle;Signal;HPM_P1;HPM_P2
2023/03/11 00:02:15;;;;;;;10.00;3.50;;;21.60;63.00;;;;;;222186;1260;23020;-53
2023/03/11 00:07:20;;;;;;;7.40;3.00;;;21.80;62.30;;;;;;222245;1256;22524;-59
2023/03/11 00:12:24;;;;;;;10.60;3.80;;;21.70;62.00;;;;;;222191;1263;25337;-58
2023/03/11 00:17:28;;;;;;;7.20;3.70;;;21.80;62.50;;;;;;222431;1263;22561;-56
2023/03/11 00:22:32;;;;;;;9.70;3.70;;;21.80;62.50;;;;;;222371;1250;25334;-44
2023/03/11 00:27:37;;;;;;;5.90;3.60;;;21.90;62.40;;;;;;222361;1264;22983;-47
2023/03/11 00:32:41;;;;;;;7.60;3.50;;;21.80;62.60;;;;;;222134;1257;22946;-44
2023/03/11 00:37:46;;;;;;;9.00;3.80;;;21.70;62.70;;;;;;222283;1247;22531;-44
2023/03/11 00:42:50;;;;;;;7.60;2.70;;;21.80;62.30;;;;;;222323;1256;22520;-46
2023/03/11 00:47:55;;;;;;;7.70;3.00;;;22.00;61.60;;;;;;221987;1257;24254;-45
2023/03/11 00:53:00;;;;;;;6.50;4.00;;;22.40;60.90;;;;;;222340;1256;25230;-43
2023/03/11 00:58:05;;;;;;;7.30;3.20;;;22.60;60.50;;;;;;222261;1257;25247;-43
2023/03/11 01:03:29;;;;;;;6.10;2.70;;;22.80;60.00;;;;;;222257;1257;22536;-45
2023/03/11 01:08:33;;;;;;;6.40;2.90;;;22.90;59.70;;;;;;222111;1257;24193;-44
2023/03/11 01:13:39;;;;;;;6.40;3.10;;;22.90;59.30;;;;;;221909;1257;26737;-44
2023/03/11 01:18:43;;;;;;;4.90;2.70;;;22.90;59.20;;;;;;224545;1262;22559;-44
2023/03/11 01:23:47;;;;;;;9.40;3.80;;;23.00;58.80;;;;;;222198;1256;22521;-45
2023/03/11 01:28:51;;;;;;;4.20;2.50;;;23.10;58.70;;;;;;229871;1257;22185;-45
2023/03/11 01:33:55;;;;;;;6.40;2.50;;;23.10;58.50;;;;;;222027;1260;22619;-45
2023/03/11 01:38:59;;;;;;;5.60;2.70;;;23.20;58.50;;;;;;222223;1256;22734;-48
2023/03/11 01:44:04;;;;;;;5.40;2.20;;;23.20;58.40;;;;;;222209;1256;22508;-45
2023/03/11 01:49:12;;;;;;;5.40;2.40;;;23.30;58.20;;;;;;222251;1257;25326;-44
2023/03/11 01:54:26;;;;;;;5.20;2.10;;;23.30;58.10;;;;;;222274;1255;22727;-44
2023/03/11 01:59:36;;;;;;;5.60;2.00;;;23.30;57.80;;;;;;222267;1262;22507;-49
2023/03/11 02:04:41;;;;;;;4.10;2.10;;;23.40;57.80;;;;;;222205;1256;25466;-44
2023/03/11 02:09:45;;;;;;;3.50;2.30;;;23.40;57.70;;;;;;222085;1256;23889;-46
2023/03/11 02:14:52;;;;;;;4.40;2.40;;;23.40;57.70;;;;;;222312;1263;24062;-47
2023/03/11 02:20:26;;;;;;;3.80;1.80;;;23.30;57.80;;;;;;221991;1263;227128;-44
2023/03/11 02:26:01;;;;;;;5.50;2.40;;;23.20;58.30;;;;;;222395;1256;25211;-44
2023/03/11 02:31:06;;;;;;;3.50;2.10;;;23.10;58.10;;;;;;222140;1263;25400;-44
2023/03/11 02:36:31;;;;;;;3.50;2.40;;;23.20;57.70;;;;;;222306;1256;22574;-45
2023/03/11 02:41:43;;;;;;;3.70;2.10;;;23.10;57.90;;;;;;222077;1256;25386;-44
2023/03/11 02:46:47;;;;;;;5.30;2.50;;;23.00;58.10;;;;;;224402;1256;22528;-46
2023/03/11 02:51:52;;;;;;;3.70;2.00;;;22.90;58.00;;;;;;222183;1256;25668;-45
2023/03/11 02:56:56;;;;;;;6.10;2.00;;;22.90;58.10;;;;;;222155;1263;22525;-44
2023/03/11 03:02:02;;;;;;;2.00;1.60;;;22.80;59.20;;;;;;222214;1263;22651;-45
2023/03/11 03:07:07;;;;;;;3.60;1.90;;;22.70;59.00;;;;;;222176;1256;25114;-44
2023/03/11 03:12:12;;;;;;;2.60;1.90;;;22.60;59.10;;;;;;222112;1256;23615;-43
2023/03/11 03:17:17;;;;;;;4.00;1.80;;;22.50;58.80;;;;;;222254;1256;23020;-45
2023/03/11 03:22:26;;;;;;;2.40;1.90;;;22.50;58.50;;;;;;222157;1256;22518;-43
2023/03/11 03:27:32;;;;;;;1.90;1.40;;;22.40;59.30;;;;;;222234;1256;22576;-46
2023/03/11 03:32:37;;;;;;;1.30;1.20;;;22.40;58.90;;;;;;222152;1256;22525;-44
2023/03/11 03:37:42;;;;;;;2.00;1.60;;;22.30;59.30;;;;;;222232;1258;23899;-44
2023/03/11 03:42:46;;;;;;;1.40;1.30;;;22.30;58.90;;;;;;222160;1256;22531;-43
2023/03/11 03:47:50;;;;;;;2.10;1.50;;;22.20;58.80;;;;;;222109;1256;22563;-45
2023/03/11 03:52:55;;;;;;;2.70;1.70;;;22.10;58.80;;;;;;222211;1263;22537;-44
2023/03/11 03:58:00;;;;;;;2.20;1.60;;;22.10;58.80;;;;;;222219;1256;22634;-44
2023/03/11 04:03:07;;;;;;;2.30;1.50;;;22.00;58.60;;;;;;221834;1263;24758;-43
2023/03/11 04:08:18;;;;;;;2.20;1.40;;;22.00;58.80;;;;;;222095;1262;25324;-46
2023/03/11 04:13:22;;;;;;;3.70;1.30;;;22.00;58.70;;;;;;226412;1263;25162;-44
2023/03/11 04:18:26;;;;;;;2.50;1.80;;;22.00;58.70;;;;;;223741;1256;23025;-43
2023/03/11 04:23:30;;;;;;;3.30;1.30;;;22.00;58.50;;;;;;223744;1263;22564;-43
2023/03/11 04:28:35;;;;;;;3.30;1.50;;;21.90;58.20;;;;;;222213;1256;24193;-44
2023/03/11 04:33:40;;;;;;;2.10;1.50;;;21.80;58.30;;;;;;222295;1256;24086;-47
2023/03/11 04:38:45;;;;;;;2.20;1.40;;;21.90;58.80;;;;;;222100;1259;22518;-45
2023/03/11 04:43:50;;;;;;;2.20;1.60;;;22.30;58.50;;;;;;222313;1263;25470;-47
2023/03/11 04:48:55;;;;;;;1.40;1.20;;;22.60;57.40;;;;;;222251;1263;25316;-44
2023/03/11 04:53:59;;;;;;;2.40;1.70;;;22.90;56.40;;;;;;222243;1246;22872;-46
2023/03/11 04:59:04;;;;;;;1.80;1.50;;;23.10;55.80;;;;;;222186;1263;22521;-43
2023/03/11 05:04:10;;;;;;;2.00;1.10;;;23.20;55.80;;;;;;222392;1262;22517;-45
2023/03/11 05:09:15;;;;;;;1.10;0.90;;;23.30;55.40;;;;;;222212;1252;22537;-44
2023/03/11 05:14:20;;;;;;;1.60;1.00;;;23.30;55.20;;;;;;222175;1257;22720;-43
2023/03/11 05:19:31;;;;;;;1.20;1.10;;;23.30;55.20;;;;;;222251;1257;25238;-45
2023/03/11 05:24:36;;;;;;;3.60;1.00;;;23.30;55.20;;;;;;222268;1263;22791;-45
2023/03/11 05:29:41;;;;;;;1.10;0.90;;;23.30;55.10;;;;;;222085;1267;25255;-46
2023/03/11 05:34:48;;;;;;;1.10;1.00;;;23.30;55.10;;;;;;222155;1256;22524;-43
2023/03/11 05:39:52;;;;;;;2.60;1.10;;;23.30;55.00;;;;;;222197;1256;22517;-45
2023/03/11 05:44:57;;;;;;;1.90;1.10;;;23.30;54.90;;;;;;222323;1263;23892;-43
2023/03/11 05:50:03;;;;;;;1.10;1.00;;;23.30;54.70;;;;;;222364;1263;24283;-45
2023/03/11 05:55:11;;;;;;;1.30;0.90;;;23.40;54.60;;;;;;222203;1256;23873;-44
2023/03/11 06:00:19;;;;;;;1.90;1.40;;;23.40;54.30;;;;;;222358;1262;25135;-43
2023/03/11 06:05:24;;;;;;;0.90;0.80;;;23.50;54.70;;;;;;222269;1263;22704;-47
2023/03/11 06:10:29;;;;;;;1.20;0.80;;;23.50;54.60;;;;;;222279;1256;22947;-43
2023/03/11 06:15:35;;;;;;;0.90;0.70;;;23.40;53.90;;;;;;222289;1256;22506;-44
2023/03/11 06:20:39;;;;;;;1.40;0.80;;;23.30;54.60;;;;;;222229;1249;24215;-45
2023/03/11 06:25:44;;;;;;;1.00;0.80;;;23.30;54.40;;;;;;222170;1256;22910;-45
2023/03/11 06:30:48;;;;;;;1.00;0.80;;;23.10;54.70;;;;;;221928;1266;22563;-45
2023/03/11 06:36:00;;;;;;;1.30;0.90;;;23.10;54.70;;;;;;222168;1263;25342;-45
2023/03/11 06:41:06;;;;;;;1.10;0.80;;;23.00;54.80;;;;;;222473;1263;24263;-44
2023/03/11 06:46:14;;;;;;;0.70;0.60;;;22.90;55.20;;;;;;222313;1256;22637;-44
2023/03/11 06:51:20;;;;;;;0.70;0.70;;;22.80;55.50;;;;;;222056;1263;22559;-45
2023/03/11 06:56:24;;;;;;;0.80;0.80;;;22.70;56.20;;;;;;222193;1257;25268;-43
2023/03/11 07:01:36;;;;;;;1.00;0.80;;;22.60;55.80;;;;;;222166;1256;22702;-43
2023/03/11 07:06:42;;;;;;;0.90;0.70;;;22.50;55.70;;;;;;222298;1255;22582;-45
2023/03/11 07:11:52;;;;;;;1.00;0.90;;;22.50;56.10;;;;;;222240;1256;22577;-43
2023/03/11 07:17:02;;;;;;;0.80;0.70;;;22.50;55.70;;;;;;222061;1256;24179;-43
2023/03/11 07:22:18;;;;;;;0.80;0.80;;;22.40;55.80;;;;;;222337;1262;22677;-43
2023/03/11 07:27:22;;;;;;;0.70;0.70;;;22.40;55.80;;;;;;222196;1256;24230;-45
2023/03/11 07:32:26;;;;;;;2.20;1.20;;;22.30;56.00;;;;;;222188;1257;25225;-46
2023/03/11 07:37:30;;;;;;;0.70;0.50;;;22.20;56.60;;;;;;222194;1263;25194;-43
2023/03/11 07:42:34;;;;;;;1.10;0.80;;;22.10;56.40;;;;;;222310;1256;22568;-44
2023/03/11 07:47:38;;;;;;;1.40;0.60;;;22.10;56.40;;;;;;222231;1263;24365;-44
2023/03/11 07:52:43;;;;;;;2.10;0.80;;;22.10;56.20;;;;;;222187;1255;22511;-43
2023/03/11 07:57:48;;;;;;;2.70;0.80;;;22.00;56.60;;;;;;222399;1257;22735;-45
2023/03/11 08:02:52;;;;;;;1.10;0.70;;;22.00;56.30;;;;;;221839;1261;25313;-43
2023/03/11 08:07:56;;;;;;;10.10;0.70;;;22.00;56.30;;;;;;222680;1247;22527;-44
2023/03/11 08:13:00;;;;;;;3.70;0.70;;;21.90;56.10;;;;;;222212;1257;22550;-47
2023/03/11 08:18:05;;;;;;;0.70;0.70;;;21.90;56.50;;;;;;222138;1264;22546;-43
2023/03/11 08:23:09;;;;;;;1.60;0.40;;;21.80;56.30;;;;;;222244;1263;22616;-43
2023/03/11 08:28:13;;;;;;;2.90;0.70;;;21.80;56.50;;;;;;222165;1249;22645;-49
2023/03/11 08:33:17;;;;;;;4.40;0.90;;;21.90;56.40;;;;;;222273;1259;22653;-44
2023/03/11 08:38:21;;;;;;;8.00;1.00;;;22.20;55.90;;;;;;222187;1257;22524;-46
2023/03/11 08:43:25;;;;;;;4.50;1.00;;;22.50;55.10;;;;;;222216;1257;22595;-44
2023/03/11 08:48:30;;;;;;;8.20;0.80;;;22.70;54.70;;;;;;221958;1263;23886;-49
2023/03/11 08:53:34;;;;;;;3.70;0.90;;;22.80;54.00;;;;;;222286;1270;22593;-45
2023/03/11 08:58:37;;;;;;;3.50;1.00;;;23.00;53.80;;;;;;222056;1261;22630;-44
2023/03/11 09:03:42;;;;;;;6.50;0.90;;;23.00;53.70;;;;;;222353;1263;22633;-42
2023/03/11 09:08:47;;;;;;;3.10;0.90;;;23.10;53.50;;;;;;222302;1257;22533;-43
2023/03/11 09:13:51;;;;;;;1.60;0.80;;;23.20;53.20;;;;;;222128;1263;22514;-44
2023/03/11 09:18:55;;;;;;;1.40;0.70;;;23.30;53.50;;;;;;221940;1267;22722;-43
2023/03/11 09:24:00;;;;;;;4.70;0.80;;;23.40;52.70;;;;;;222274;1263;24119;-44
2023/03/11 09:29:04;;;;;;;2.50;0.90;;;23.50;52.40;;;;;;222130;1263;24300;-42
2023/03/11 09:34:11;;;;;;;1.40;0.70;;;23.60;52.20;;;;;;222261;1263;23977;-45
2023/03/11 09:39:18;;;;;;;0.90;0.60;;;23.70;52.00;;;;;;222142;1263;25337;-43
2023/03/11 09:44:41;;;;;;;1.70;0.50;;;23.80;51.70;;;;;;222153;1256;22520;-43
2023/03/11 09:50:08;;;;;;;2.20;0.70;;;23.80;51.70;;;;;;222263;1263;22713;-45
2023/03/11 09:55:47;;;;;;;0.80;0.60;;;23.90;51.10;;;;;;221955;1263;22504;-43
2023/03/11 10:00:52;;;;;;;2.90;0.70;;;23.70;51.30;;;;;;222165;1263;22588;-48
2023/03/11 10:06:05;;;;;;;6.80;0.80;;;23.60;51.30;;;;;;221910;1264;23132;-47
2023/03/11 10:11:25;;;;;;;1.30;0.90;;;23.40;52.00;;;;;;221968;1266;24231;-43
2023/03/11 10:16:41;;;;;;;1.40;0.70;;;23.30;52.00;;;;;;222004;1264;23882;-51
2023/03/11 10:22:12;;;;;;;0.80;0.70;;;23.30;52.10;;;;;;221902;1265;22534;-41
2023/03/11 10:27:23;;;;;;;9.40;1.00;;;23.20;52.20;;;;;;222183;1256;25500;-41
2023/03/11 10:32:48;;;;;;;5.20;1.20;;;23.10;53.20;;;;;;222060;1263;24257;-38
2023/03/11 10:37:57;;;;;;;12.70;1.40;;;23.00;53.50;;;;;;222131;1265;22644;-39
2023/03/11 10:43:12;;;;;;;21.40;2.30;;;23.00;58.80;;;;;;222073;1266;22629;-42
2023/03/11 10:48:18;;;;;;;5.40;1.30;;;22.90;58.50;;;;;;221906;1259;24356;-39
2023/03/11 10:53:22;;;;;;;7.90;1.20;;;22.90;57.30;;;;;;222008;1257;24364;-39
2023/03/11 10:58:28;;;;;;;11.00;1.60;;;22.80;57.80;;;;;;222150;1263;24228;-41
2023/03/11 11:03:33;;;;;;;6.10;1.40;;;22.70;57.30;;;;;;222104;1263;25735;-39
2023/03/11 11:08:38;;;;;;;10.90;1.40;;;22.70;57.70;;;;;;222216;1257;25485;-39
2023/03/11 11:13:55;;;;;;;8.40;1.50;;;22.70;58.30;;;;;;222245;1256;22525;-41
2023/03/11 11:19:04;;;;;;;5.60;1.20;;;22.70;57.50;;;;;;222321;1257;22517;-40
2023/03/11 11:24:11;;;;;;;6.80;1.20;;;22.70;57.60;;;;;;222266;1259;22791;-39
2023/03/11 11:29:16;;;;;;;6.70;1.70;;;22.60;57.60;;;;;;222376;1263;22523;-39
2023/03/11 11:34:33;;;;;;;3.90;1.30;;;22.50;57.70;;;;;;222329;1263;25214;-39
2023/03/11 11:39:55;;;;;;;7.00;1.60;;;22.50;57.40;;;;;;222363;1256;25528;-39
2023/03/11 11:45:04;;;;;;;4.90;1.60;;;22.40;57.30;;;;;;222055;1263;22539;-39
2023/03/11 11:50:17;;;;;;;8.60;1.60;;;22.40;57.40;;;;;;222281;1256;22518;-39
2023/03/11 11:55:29;;;;;;;8.30;2.10;;;22.40;57.60;;;;;;222275;1263;24223;-41
2023/03/11 12:00:43;;;;;;;5.40;1.90;;;22.40;58.30;;;;;;222304;1257;25343;-39
2023/03/11 12:06:01;;;;;;;3.30;1.50;;;22.40;58.00;;;;;;222201;1257;24345;-40
2023/03/11 12:11:09;;;;;;;2.80;1.70;;;22.30;57.80;;;;;;222163;1257;22600;-38
2023/03/11 12:16:55;;;;;;;4.30;1.40;;;22.10;57.10;;;;;;223503;1270;24379;-39
2023/03/11 12:22:33;;;;;;;5.10;1.50;;;22.20;57.00;;;;;;221195;1269;22545;-41
2023/03/11 12:27:45;;;;;;;8.00;1.50;;;22.10;57.30;;;;;;221136;1260;26538;-40
2023/03/11 12:32:56;;;;;;;5.90;1.60;;;22.10;56.80;;;;;;221155;1275;22540;-41
2023/03/11 12:38:05;;;;;;;3.20;1.40;;;22.00;56.90;;;;;;221113;1270;24336;-41
2023/03/11 12:43:34;;;;;;;3.00;1.30;;;21.90;56.90;;;;;;221132;1269;22665;-38
2023/03/11 12:49:12;;;;;;;8.30;2.60;;;21.80;56.70;;;;;;221070;1270;22521;-38
2023/03/11 12:54:26;;;;;;;7.70;2.10;;;21.90;56.50;;;;;;221115;1269;24224;-39
2023/03/11 13:00:16;;;;;;;8.70;3.10;;;21.90;56.50;;;;;;222323;1247;22530;-40
2023/03/11 13:05:39;;;;;;;7.30;2.00;;;21.90;56.50;;;;;;222285;1263;25306;-40
2023/03/11 13:10:48;;;;;;;9.70;1.70;;;21.80;56.60;;;;;;222161;1256;23522;-39
2023/03/11 13:15:53;;;;;;;6.30;2.30;;;21.70;56.40;;;;;;222157;1266;25309;-39
2023/03/11 13:21:02;;;;;;;9.00;2.10;;;21.60;56.30;;;;;;222314;1257;22657;-41
2023/03/11 13:26:39;;;;;;;10.10;2.00;;;21.50;57.10;;;;;;222129;1259;22547;-39
2023/03/11 13:32:16;;;;;;;9.70;2.10;;;21.70;57.70;;;;;;220498;1264;22529;-38
2023/03/11 13:37:46;;;;;;;7.60;2.30;;;21.60;58.30;;;;;;220691;1266;22657;-39
2023/03/11 13:43:08;;;;;;;9.60;2.00;;;21.40;58.30;;;;;;220853;1271;24063;-38
2023/03/11 13:48:15;;;;;;;6.20;2.10;;;21.40;58.30;;;;;;220512;1263;24273;-38
2023/03/11 13:53:36;;;;;;;5.10;1.80;;;21.30;58.20;;;;;;220640;1263;24063;-38
2023/03/11 13:58:40;;;;;;;3.40;1.80;;;21.40;58.10;;;;;;220761;1262;25387;-40
2023/03/11 14:03:46;;;;;;;5.90;2.00;;;21.30;57.90;;;;;;220716;1265;25345;-38
2023/03/11 14:08:56;;;;;;;3.10;1.80;;;21.30;58.30;;;;;;221941;1263;24164;-38
2023/03/11 14:14:00;;;;;;;7.30;2.60;;;21.40;58.40;;;;;;222131;1256;22772;-37
2023/03/11 14:19:14;;;;;;;8.80;2.20;;;21.30;58.70;;;;;;221991;1263;187837;-38
2023/03/11 14:24:38;;;;;;;10.20;2.50;;;21.30;58.60;;;;;;222357;1257;23894;-38
2023/03/11 14:29:47;;;;;;;8.10;2.30;;;21.30;58.30;;;;;;222090;1269;23000;-38
2023/03/11 14:34:51;;;;;;;5.60;2.00;;;21.20;59.00;;;;;;222259;1257;22517;-37
2023/03/11 14:39:56;;;;;;;9.50;2.30;;;21.10;59.40;;;;;;221918;1269;22458;-41
2023/03/11 14:45:18;;;;;;;8.20;2.20;;;21.20;60.50;;;;;;222474;1257;22570;-40
2023/03/11 14:50:25;;;;;;;4.30;2.10;;;21.20;60.30;;;;;;221846;1262;25327;-38
2023/03/11 14:55:39;;;;;;;5.30;2.30;;;21.00;60.90;;;;;;221884;1264;24244;-41
2023/03/11 15:00:56;;;;;;;4.30;2.00;;;21.10;61.10;;;;;;222214;1263;22525;-37
2023/03/11 15:06:23;;;;;;;3.60;2.00;;;21.60;58.90;;;;;;222184;1257;22789;-39
2023/03/11 15:11:28;;;;;;;8.80;2.00;;;22.00;58.70;;;;;;222422;1260;22532;-38
2023/03/11 15:16:36;;;;;;;6.30;3.00;;;22.30;59.30;;;;;;222152;1258;25367;-39
2023/03/11 15:21:46;;;;;;;5.00;1.80;;;22.40;58.80;;;;;;222305;1269;22514;-42
2023/03/11 15:26:55;;;;;;;4.20;1.90;;;22.40;58.50;;;;;;222255;1256;25318;-38
2023/03/11 15:31:59;;;;;;;5.20;1.70;;;22.60;58.00;;;;;;222407;1259;22542;-38
2023/03/11 15:37:19;;;;;;;3.60;1.50;;;22.70;58.00;;;;;;222205;1264;24173;-37
2023/03/11 15:42:25;;;;;;;3.40;2.10;;;22.70;57.80;;;;;;222331;1257;22522;-39
2023/03/11 15:47:30;;;;;;;4.40;1.60;;;22.70;57.80;;;;;;222528;1256;22649;-38
2023/03/11 15:52:36;;;;;;;6.30;1.80;;;22.70;57.80;;;;;;222425;1257;25773;-40
2023/03/11 15:57:41;;;;;;;3.20;1.70;;;22.90;57.70;;;;;;222243;1264;24243;-41
2023/03/11 16:02:46;;;;;;;4.60;2.00;;;22.80;57.70;;;;;;222310;1269;22591;-41
2023/03/11 16:07:51;;;;;;;3.70;2.00;;;22.90;58.10;;;;;;222402;1266;22563;-39
2023/03/11 16:12:56;;;;;;;2.40;1.90;;;22.90;58.00;;;;;;222297;1266;22956;-39
2023/03/11 16:18:07;;;;;;;3.10;1.80;;;22.90;57.80;;;;;;222417;1258;24231;-39
2023/03/11 16:23:27;;;;;;;3.40;1.70;;;23.00;57.40;;;;;;222355;1266;22849;-39
2023/03/11 16:28:36;;;;;;;2.90;1.40;;;23.00;57.00;;;;;;222533;1264;24324;-41
2023/03/11 16:33:42;;;;;;;3.40;1.50;;;23.00;56.70;;;;;;222303;1270;22565;-39
2023/03/11 16:38:49;;;;;;;3.10;1.50;;;23.00;57.50;;;;;;222154;1266;22513;-39
2023/03/11 16:43:55;;;;;;;2.70;1.90;;;23.00;57.00;;;;;;222218;1257;24184;-39
2023/03/11 16:49:00;;;;;;;2.00;1.50;;;23.00;56.30;;;;;;222295;1257;23953;-41
2023/03/11 16:54:05;;;;;;;4.20;1.80;;;23.10;56.10;;;;;;222263;1266;22807;-38
2023/03/11 16:59:10;;;;;;;2.60;1.50;;;23.10;56.50;;;;;;222453;1258;24229;-39
2023/03/11 17:04:14;;;;;;;1.60;1.40;;;23.10;56.30;;;;;;222168;1270;24369;-39
2023/03/11 17:09:22;;;;;;;4.50;1.50;;;23.10;56.30;;;;;;222439;1263;22502;-41
2023/03/11 17:14:28;;;;;;;2.70;1.30;;;23.10;56.60;;;;;;222160;1269;22599;-39
2023/03/11 17:19:34;;;;;;;2.80;1.50;;;23.10;56.10;;;;;;222438;1266;24389;-38
2023/03/11 17:24:39;;;;;;;2.30;1.50;;;23.20;55.90;;;;;;222270;1263;22963;-38
2023/03/11 17:29:44;;;;;;;2.00;1.40;;;23.30;55.70;;;;;;222610;1270;24448;-38
2023/03/11 17:34:50;;;;;;;2.10;1.90;;;23.30;55.70;;;;;;222112;1270;22638;-38
2023/03/11 17:39:55;;;;;;;4.00;1.40;;;23.20;55.40;;;;;;222298;1260;22738;-38
2023/03/11 17:45:02;;;;;;;2.10;1.40;;;23.30;55.80;;;;;;222337;1264;24285;-39
2023/03/11 17:50:09;;;;;;;2.10;1.40;;;23.30;55.10;;;;;;222365;1269;26057;-39
2023/03/11 17:55:14;;;;;;;2.80;1.50;;;23.10;55.60;;;;;;222348;1264;25394;-36
2023/03/11 18:00:21;;;;;;;3.60;1.40;;;23.00;54.90;;;;;;222150;1264;24147;-37
2023/03/11 18:05:27;;;;;;;3.40;1.50;;;23.00;55.80;;;;;;222136;1260;25251;-38
2023/03/11 18:10:33;;;;;;;3.80;1.60;;;22.90;55.70;;;;;;222284;1263;25320;-39
2023/03/11 18:15:39;;;;;;;2.50;1.30;;;22.90;56.80;;;;;;221937;1264;24264;-38
2023/03/11 18:20:44;;;;;;;3.00;1.50;;;22.90;58.30;;;;;;221994;1266;22552;-38
2023/03/11 18:25:51;;;;;;;3.80;1.70;;;22.90;58.70;;;;;;221824;1264;26509;-38
2023/03/11 18:31:06;;;;;;;7.10;1.50;;;22.80;59.30;;;;;;222205;1264;24548;-38
2023/03/11 18:36:22;;;;;;;2.10;1.90;;;22.70;60.20;;;;;;222264;1258;22518;-37
2023/03/11 18:41:32;;;;;;;3.10;1.70;;;22.80;61.10;;;;;;222198;1261;22633;-40
2023/03/11 18:46:40;;;;;;;3.40;2.10;;;22.70;61.50;;;;;;222334;1264;22761;-39
2023/03/11 18:51:47;;;;;;;3.70;2.40;;;22.60;63.30;;;;;;222233;1257;23020;-39
2023/03/11 18:56:53;;;;;;;2.60;1.80;;;22.70;63.00;;;;;;222030;1262;22525;-39
2023/03/11 19:02:01;;;;;;;2.50;1.80;;;22.70;62.80;;;;;;222097;1263;23892;-42
2023/03/11 19:07:08;;;;;;;4.30;2.10;;;22.70;63.10;;;;;;221957;1258;24256;-40
2023/03/11 19:12:14;;;;;;;5.30;2.00;;;22.60;63.50;;;;;;222220;1264;24225;-39
2023/03/11 19:17:20;;;;;;;7.60;2.40;;;22.60;63.10;;;;;;222154;1247;25591;-40
2023/03/11 19:22:28;;;;;;;7.80;2.00;;;22.50;63.00;;;;;;222014;1264;22526;-37
2023/03/11 19:27:34;;;;;;;5.90;1.90;;;22.50;63.60;;;;;;222015;1266;22546;-37
2023/03/11 19:32:41;;;;;;;3.40;1.80;;;22.40;63.60;;;;;;222231;1267;22528;-37
2023/03/11 19:37:49;;;;;;;7.70;2.20;;;22.30;63.80;;;;;;222167;1257;24013;-37
2023/03/11 19:42:59;;;;;;;2.20;1.70;;;22.20;64.20;;;;;;222148;1267;25216;-38
2023/03/11 19:48:03;;;;;;;3.30;2.20;;;22.20;64.70;;;;;;222268;1263;25337;-38
2023/03/11 19:53:11;;;;;;;3.20;1.80;;;22.20;64.30;;;;;;222237;1257;22521;-41
2023/03/11 19:58:17;;;;;;;7.90;2.00;;;22.20;64.00;;;;;;222143;1257;22592;-39
2023/03/11 20:03:23;;;;;;;3.10;1.90;;;22.10;63.70;;;;;;222036;1261;22595;-38
2023/03/11 20:08:29;;;;;;;5.70;2.00;;;22.10;63.50;;;;;;222162;1256;22645;-38
2023/03/11 20:13:35;;;;;;;4.70;1.80;;;22.00;63.60;;;;;;222300;1258;25249;-41
2023/03/11 20:18:41;;;;;;;7.60;1.60;;;21.90;63.20;;;;;;222216;1264;22637;-39
2023/03/11 20:23:48;;;;;;;9.10;2.10;;;22.00;62.90;;;;;;222106;1264;22629;-40
2023/03/11 20:28:57;;;;;;;3.70;2.10;;;21.90;62.80;;;;;;222455;1264;22511;-41
2023/03/11 20:34:04;;;;;;;8.80;2.20;;;22.00;62.30;;;;;;222138;1263;24199;-39
2023/03/11 20:39:09;;;;;;;7.60;2.20;;;22.00;62.00;;;;;;222442;1257;25467;-41
2023/03/11 20:44:14;;;;;;;2.60;1.60;;;21.90;61.80;;;;;;222080;1257;24217;-40
2023/03/11 20:49:20;;;;;;;5.90;1.80;;;22.00;61.70;;;;;;222122;1264;24301;-38
2023/03/11 20:54:26;;;;;;;7.50;2.00;;;22.00;61.10;;;;;;222084;1257;24245;-39
2023/03/11 20:59:33;;;;;;;5.40;1.90;;;21.90;61.30;;;;;;221907;1264;25396;-38
2023/03/11 21:04:40;;;;;;;6.20;2.10;;;21.90;61.10;;;;;;222506;1257;25500;-42
2023/03/11 21:09:46;;;;;;;7.20;2.20;;;21.80;60.90;;;;;;221981;1263;22553;-42
2023/03/11 21:14:52;;;;;;;6.20;2.10;;;21.70;61.40;;;;;;221942;1256;25411;-44
2023/03/11 21:19:57;;;;;;;3.90;1.90;;;21.60;61.50;;;;;;222003;1256;24252;-43
2023/03/11 21:25:04;;;;;;;8.10;1.90;;;21.50;61.40;;;;;;222032;1266;22515;-43
2023/03/11 21:30:13;;;;;;;3.50;2.00;;;21.50;61.40;;;;;;221975;1256;24180;-43
2023/03/11 21:35:17;;;;;;;7.90;2.40;;;21.40;61.50;;;;;;222066;1247;22511;-39
2023/03/11 21:40:22;;;;;;;5.40;2.30;;;21.50;62.50;;;;;;226425;1264;22914;-40
2023/03/11 21:45:27;;;;;;;6.60;2.40;;;21.70;62.60;;;;;;221920;1246;22520;-39
2023/03/11 21:50:34;;;;;;;9.20;2.70;;;21.70;63.30;;;;;;222034;1263;25386;-40
2023/03/11 21:55:41;;;;;;;8.20;2.80;;;21.60;63.10;;;;;;222166;1250;24314;-38
2023/03/11 22:00:45;;;;;;;12.80;2.70;;;21.30;63.40;;;;;;222148;1257;22641;-39
2023/03/11 22:05:58;;;;;;;8.60;3.00;;;21.30;63.50;;;;;;222411;1263;22609;-44
2023/03/11 22:11:06;;;;;;;9.70;2.60;;;21.30;63.40;;;;;;222280;1263;25374;-46
2023/03/11 22:16:10;;;;;;;4.90;2.60;;;21.30;63.30;;;;;;222450;1263;22498;-47
2023/03/11 22:21:17;;;;;;;7.90;2.50;;;21.30;64.50;;;;;;222214;1263;24273;-46
2023/03/11 22:26:23;;;;;;;16.50;2.50;;;21.60;63.40;;;;;;222188;1254;22657;-45
2023/03/11 22:31:32;;;;;;;12.10;2.60;;;22.00;61.90;;;;;;222250;1262;22636;-45
2023/03/11 22:36:40;;;;;;;7.50;2.30;;;22.30;61.00;;;;;;222016;1263;22514;-44
2023/03/11 22:41:49;;;;;;;4.50;2.20;;;22.50;60.40;;;;;;222122;1262;26772;-47
2023/03/11 22:46:58;;;;;;;;;;;22.70;59.50;;;;;;221895;1264;22491;-47
2023/03/11 22:52:06;;;;;;;6.10;2.20;;;22.90;59.50;;;;;;222235;1253;22752;-44
2023/03/11 22:57:15;;;;;;;2.90;1.90;;;23.00;58.90;;;;;;222125;1256;22625;-48
2023/03/11 23:02:23;;;;;;;3.90;2.40;;;22.90;58.70;;;;;;221993;1256;22563;-45
2023/03/11 23:07:27;;;;;;;3.90;2.10;;;23.00;59.00;;;;;;222115;1257;24228;-47
2023/03/11 23:12:31;;;;;;;2.60;2.20;;;23.10;58.30;;;;;;222274;1257;22754;-48
2023/03/11 23:17:35;;;;;;;3.70;2.00;;;23.10;58.10;;;;;;222244;1263;22521;-45
2023/03/11 23:22:40;;;;;;;5.40;1.90;;;23.10;58.10;;;;;;222222;1262;22697;-45
2023/03/11 23:27:45;;;;;;;4.60;1.90;;;23.10;58.10;;;;;;222158;1256;24216;-46
2023/03/11 23:32:49;;;;;;;4.80;2.10;;;23.20;57.80;;;;;;222220;1257;24239;-47
2023/03/11 23:37:53;;;;;;;4.70;2.00;;;23.10;57.60;;;;;;222260;1257;22630;-51
2023/03/11 23:42:57;;;;;;;2.30;1.70;;;23.10;57.80;;;;;;222210;1263;22517;-45
2023/03/11 23:48:01;;;;;;;2.30;1.60;;;23.10;57.60;;;;;;221936;1257;22527;-48
2023/03/11 23:53:05;;;;;;;5.00;2.20;;;22.90;57.80;;;;;;222244;1263;24251;-49
2023/03/11 23:58:10;;;;;;;4.00;2.10;;;22.70;58.10;;;;;;222307;1263;23932;-46
